Airport ID:CYBF
Update Time (UTC):29/02/2024 01:48
Wind Speed (Knots):13
Wind Direction (Magnetic):100
Temperature (°C):-15.1
Dew Point (°C):-20.7
Humidity (%):63
Altimeter (inHg):29.67
Density Altitude (Feet):\\\\
Visibility (Miles):6
Clouds (Hundreds of feet):OVC019
Present Weather:
METAR:METAR CYBF 290130Z AUTO 13012KT 10SM SCT020 OVC070 M15/M20 A2968=

The data displayed is for advisory purposes only and is not to be used for flight planning or operations.

This page is not automatically refreshed. Reload the page to see current data.